Aérodrome :
LOGIN :

S'inscrire | Disclaimer

   EN    FR    IT 

 










Légende :    VFR   VFR Marginal   IFR   IFR Intensif   IFR Très Intensif
Visi : 
Plafond : 
>= 8 km
>= 3000ft
5 à 8 km
1000 à 3000 ft
1500m à 5 km
500 à 1000 ft
800 à 1500m
200 à 500 ft
< 800m
< 200 ft
Symboles :   Orages  Brouillard  Fortes neiges  Fortes précipitations  Vent > 20 kt
SIGMETs :   Divers  Orages  Givrage  Turbulence  Onde Orograph.  Cendres Volcan.







- Altitude de l'aérodrome : 11 ft
- Code IATA : SXL


EISG - Sligo

DERNIER METAR :
  • 221600Z 13009KT 100V160 CAVOK 21/07 Q0998

METARs EXPIRÉS :
  • 221530Z 13009KT 100V180 CAVOK 21/07 Q0998
  • 221500Z 13011G22KT 100V180 CAVOK 21/07 Q0999
  • 221430Z 15011KT 110V190 CAVOK 21/06 Q0998
  • 221400Z 15011G24KT 110V180 CAVOK 21/06 Q0999
  • 221330Z 13012KT CAVOK 21/06 Q998
  • 221300Z 13012KT 100V160 CAVOK 20/05 Q998

TAF TAF EISG
Valide du 22 à 15h jusqu'au 23 à 00h UTC


221400Z 2215/2224 12012KT CAVOK
TEMPO 2215/2217 14015G28KT
Pas de NOTAMs connus pour ce terrain.



MET'MAP, la Météo Aéronautique d'un coup d'oeil ! - Copyright ORBIFLY Décembre 2007 - Disclaimer

ORBIFLY MET'MAP TEAM :

Programmation & Développement : Alexandra Zaïnal
Conception & Développement : Baudouin d'Aumeries
Co-Programmation & Développement : Marc-Olivier Méhu
Soutien technique & logistique : Manuel Goepfert

Contact : metmap@orbifly.com




SOURCES & CREDITS :

   NOAA